Avant, Oklahoma
Current Conditions -  °F | °C
As of 9:14 PM on Sunday 21 Dec 2014 (Local Time) from KBVO Reporting Station
Overcast Overcast  
Wind Chill:   Ceiling: 1400
Heat Index:   Visibility: 10mi
Dew Point:   Wind: 15mph
Humidity: 86%   Direction: 160°SSE
Pressure: 29.77"   Gusts: 23mph
Location:  36.49°N, 96.06°W
Report Text: KBVO 220314Z AUTO 16013G20KT 10SM BKN014 OVC048 07/05 A2977 RMK AO2 T00720050
Loading
Personal Weather Stations






























Interactive Weather Map New forecast layout! Learn more

10-Day Weather Forecast

Advertisements
Track Severe Weather on mobile